CW4320 Penacastillo ES current weather conditions

sailwx.info

Wind from 360 at 5 knots gusting 13

Air temperature 9.4° C
Dewpoint 7.1° C

Last reported at 2017-Dec-16 11:00 UTC.
Time now 2017-Dec-16 11:19 UTC

Location: N 43°27' W 003°53'.
View on Google Maps.

See reports from other nearby stations

  
Tides and Currents Weather Stations Pressure Air Temp Water Temp Dewpoint Dewpoint Depression Visibility Wind Speed Wind Dir Waves Ship Positions
date/time (UTC)wind fromknots sea level pressurealtimeterstation pressurevisibilityair tempwater tempwave heightnotes
2017-Dec-16 11:00 360 5 gusting 13 9.4
2017-Dec-16 10:55 360 6 gusting 16 9.4
2017-Dec-16 10:50 019 9 gusting 16 8.9
2017-Dec-16 10:45 360 9 gusting 15 8.9
2017-Dec-16 10:40 353 10 gusting 15 8.9
2017-Dec-16 10:35 027 4 gusting 12 8.9
2017-Dec-16 10:30 360 3 gusting 7 8.9
2017-Dec-16 10:25 243 0 gusting 7 9.4
2017-Dec-16 10:20 280 1 gusting 4 9.4
2017-Dec-16 10:15 342 2 gusting 6 9.4
2017-Dec-16 10:10 356 9.4
2017-Dec-16 10:05 354 1 gusting 5 9.4
2017-Dec-16 10:00 354 2 gusting 7 9.4
2017-Dec-16 09:55 347 4 gusting 7 9.4
2017-Dec-16 09:50 328 4 gusting 6 9.4
2017-Dec-16 09:45 330 2 gusting 6 8.9
2017-Dec-16 09:40 345 0 gusting 6 8.9
2017-Dec-16 09:35 345 1 gusting 6 8.9
2017-Dec-16 09:30 349 2 gusting 7 8.9
2017-Dec-16 09:25 014 4 gusting 10 8.9
2017-Dec-16 09:20 007 6 gusting 13 8.9
2017-Dec-16 09:15 006 6 gusting 13 8.9
2017-Dec-16 09:10 011 6 gusting 14 8.9
2017-Dec-16 09:05 357 7 gusting 14 8.9
2017-Dec-16 09:00 340 6 gusting 11 8.3
2017-Dec-16 08:55 335 2 gusting 6 8.3
2017-Dec-16 08:50 326 0 gusting 6 8.3
2017-Dec-16 08:45 001 2 gusting 6 8.3
2017-Dec-16 08:40 004 3 gusting 15 8.3
2017-Dec-16 08:35 357 9 gusting 15 8.3
2017-Dec-16 08:30 348 10 gusting 20 8.3
2017-Dec-16 08:25 303 12 gusting 20 8.9
2017-Dec-16 08:20 360 13 gusting 20 8.9
2017-Dec-16 08:15 300 6 gusting 13 8.9
2017-Dec-16 08:10 300 6 gusting 13 8.9
2017-Dec-16 08:05 283 2 gusting 10 8.9
2017-Dec-16 08:00 306 5 gusting 12 8.9
2017-Dec-16 07:55 322 6 gusting 12 8.9
2017-Dec-16 07:50 292 8 gusting 12 8.9
2017-Dec-16 07:45 307 5 gusting 13 8.9
2017-Dec-16 07:40 360 7 gusting 13 8.9
2017-Dec-16 07:35 360 9 gusting 16 8.9
2017-Dec-16 07:30 002 10 gusting 16 8.9
2017-Dec-16 07:25 326 6 gusting 12 8.9
2017-Dec-16 07:20 307 6 gusting 9 8.3
2017-Dec-16 07:15 303 3 gusting 10 8.3
2017-Dec-16 07:10 321 6 gusting 13 8.3
2017-Dec-16 07:05 274 6 gusting 13 8.3
2017-Dec-16 07:00 290 6 gusting 17 8.3
2017-Dec-16 06:55 284 5 gusting 17 8.9
2017-Dec-16 06:50 316 6 gusting 22 8.9
2017-Dec-16 06:45 330 10 gusting 22 9.4
2017-Dec-16 06:40 359 10 gusting 19 9.4
2017-Dec-16 06:35 336 13 gusting 19 10.0
2017-Dec-16 06:30 347 10 gusting 16 10.0
2017-Dec-16 06:25 315 11 gusting 16 9.4
2017-Dec-16 06:20 291 10 gusting 16 9.4
2017-Dec-16 06:15 311 10 gusting 16 9.4
2017-Dec-16 06:10 332 8 gusting 17 8.9
2017-Dec-16 06:05 321 10 gusting 17 8.9
2017-Dec-16 06:00 321 9 gusting 15 8.9
2017-Dec-16 05:55 306 5 gusting 10 8.9
2017-Dec-16 05:50 360 8.9
2017-Dec-16 05:45 293 1 gusting 8 8.9
2017-Dec-16 05:40 316 3 gusting 18 8.9
2017-Dec-16 05:35 342 8 gusting 19 9.4
2017-Dec-16 05:30 332 12 gusting 19 9.4
2017-Dec-16 05:25 327 9 gusting 13 9.4
2017-Dec-16 05:20 309 7 gusting 13 9.4
2017-Dec-16 05:15 313 7 gusting 13 9.4
2017-Dec-16 05:10 360 6 gusting 12 8.9
2017-Dec-16 05:05 279 2 gusting 8 8.9
2017-Dec-16 05:00 281 5 gusting 9 8.9
2017-Dec-16 04:55 276 4 gusting 9 8.9
2017-Dec-16 04:50 282 4 gusting 10 8.9
2017-Dec-16 04:45 302 5 gusting 12 9.4
2017-Dec-16 04:40 264 6 gusting 13 9.4
2017-Dec-16 04:35 302 6 gusting 14 9.4
2017-Dec-16 04:30 266 8 gusting 18 9.4
2017-Dec-16 04:25 288 10 gusting 18 9.4
2017-Dec-16 04:20 317 11 gusting 18 9.4
2017-Dec-16 04:15 307 10 gusting 17 9.4
2017-Dec-16 04:11 354 11 gusting 15 9.4
2017-Dec-16 04:05 320 11 gusting 15 9.4
2017-Dec-16 04:00 296 7 gusting 13 9.4
2017-Dec-16 03:55 323 6 gusting 13 9.4
2017-Dec-16 03:50 326 8 gusting 16 9.4
2017-Dec-16 03:45 340 10 gusting 16 9.4
2017-Dec-16 03:40 303 10 gusting 18 9.4
2017-Dec-16 03:35 326 8 gusting 18 10.0
2017-Dec-16 03:30 347 6 gusting 13 10.0
2017-Dec-16 03:25 311 7 gusting 15 10.0
2017-Dec-16 03:20 313 10 gusting 15 10.0
2017-Dec-16 03:15 305 6 gusting 17 10.0
2017-Dec-16 03:10 360 13 gusting 17 9.4
2017-Dec-16 03:05 307 11 gusting 16 9.4
2017-Dec-16 03:00 315 6 gusting 14 9.4
2017-Dec-16 02:55 295 9 gusting 15 9.4
2017-Dec-16 02:50 311 9 gusting 15 9.4
2017-Dec-16 02:45 300 6 gusting 12 9.4
2017-Dec-16 02:40 325 7 gusting 11 9.4
2017-Dec-16 02:35 300 6 gusting 9 9.4
2017-Dec-16 02:30 302 6 gusting 9 9.4
2017-Dec-16 02:25 318 7 gusting 11 9.4
2017-Dec-16 02:20 341 6 gusting 11 9.4
2017-Dec-16 02:15 344 6 gusting 14 9.4
2017-Dec-16 02:11 338 10 gusting 14 9.4
2017-Dec-16 02:05 349 6 gusting 14 9.4
2017-Dec-16 02:00 348 7 gusting 14 9.4
2017-Dec-16 01:55 358 10 gusting 13 9.4
2017-Dec-16 01:50 323 8 gusting 14 8.9
2017-Dec-16 01:45 297 7 gusting 14 9.4
2017-Dec-16 01:40 320 8 gusting 16 9.4
2017-Dec-16 01:35 354 12 gusting 16 9.4
2017-Dec-16 01:30 341 8 gusting 15 8.9
2017-Dec-16 01:25 342 10 gusting 15 8.9
2017-Dec-16 01:20 328 6 gusting 17 8.9
2017-Dec-16 01:15 320 7 gusting 17 8.9
2017-Dec-16 01:10 335 4 gusting 10 8.3
2017-Dec-16 01:05 327 5 gusting 12 8.3
2017-Dec-16 01:00 331 5 gusting 15 8.9
2017-Dec-16 00:55 353 9 gusting 15 9.4
2017-Dec-16 00:50 319 10 gusting 19 9.4
2017-Dec-16 00:45 324 10 gusting 19 9.4
2017-Dec-16 00:40 323 6 gusting 14 10.0
2017-Dec-16 00:35 257 6 gusting 15 10.0
2017-Dec-16 00:30 291 6 gusting 15 10.0
2017-Dec-16 00:25 262 11 gusting 15 10.0
2017-Dec-16 00:20 321 8 gusting 14 10.0
2017-Dec-16 00:15 302 9 gusting 14 9.4
2017-Dec-16 00:10 320 9 gusting 15 9.4
2017-Dec-16 00:05 294 9 gusting 15 9.4
2017-Dec-16 00:00 313 6 gusting 12 9.4
2017-Dec-15 23:55 318 6 gusting 13 9.4
2017-Dec-15 23:50 328 6 gusting 16 9.4
2017-Dec-15 23:45 360 10 gusting 16 9.4
2017-Dec-15 23:40 339 7 gusting 15 10.0
2017-Dec-15 23:35 335 10 gusting 19 10.0
2017-Dec-15 23:30 327 12 gusting 19 10.0
2017-Dec-15 23:25 311 13 gusting 19 10.0
2017-Dec-15 23:20 343 13 gusting 22 10.6
2017-Dec-15 23:15 333 13 gusting 22 10.0
2017-Dec-15 23:10 326 6 gusting 15 10.0
2017-Dec-15 23:05 360 9 gusting 19 10.0
2017-Dec-15 23:00 338 9 gusting 19 9.4
2017-Dec-15 22:55 360 8 gusting 14 9.4
2017-Dec-15 22:50 298 7 gusting 14 9.4
2017-Dec-15 22:45 315 10 gusting 16 9.4
2017-Dec-15 22:40 305 13 gusting 16 9.4
2017-Dec-15 22:35 302 10 gusting 15 9.4
2017-Dec-15 22:30 328 9 gusting 19 9.4
2017-Dec-15 22:25 360 13 gusting 19 9.4
2017-Dec-15 22:20 283 9 gusting 13 9.4
2017-Dec-15 22:15 328 6 gusting 13 9.4
2017-Dec-15 22:10 287 6 gusting 16 9.4
2017-Dec-15 22:05 299 6 gusting 16 9.4
2017-Dec-15 22:00 297 8 gusting 12 9.4
2017-Dec-15 21:55 314 8 gusting 13 9.4
2017-Dec-15 21:50 316 10 gusting 17 9.4
2017-Dec-15 21:45 307 9 gusting 18 9.4
2017-Dec-15 21:40 309 11 gusting 18 9.4
2017-Dec-15 21:35 360 6 gusting 13 9.4
2017-Dec-15 21:30 274 6 gusting 13 9.4
2017-Dec-15 21:25 282 4 gusting 12 9.4
2017-Dec-15 21:20 264 6 gusting 17 9.4
2017-Dec-15 21:15 326 8 gusting 17 9.4
2017-Dec-15 21:10 269 7 gusting 18 9.4
2017-Dec-15 21:05 290 11 gusting 18 9.4
2017-Dec-15 21:00 289 10 gusting 16 9.4
2017-Dec-15 20:55 304 7 gusting 14 9.4
2017-Dec-15 20:50 295 9 gusting 14 9.4
2017-Dec-15 20:45 300 8 gusting 15 9.4
2017-Dec-15 20:40 339 9 gusting 21 9.4
2017-Dec-15 20:35 297 9 gusting 23 9.4
2017-Dec-15 20:30 307 13 gusting 23 10.0
2017-Dec-15 20:25 307 2 gusting 10 10.0
2017-Dec-15 20:20 285 3 gusting 12 10.0
2017-Dec-15 20:15 360 7 gusting 13 10.0
2017-Dec-15 20:10 302 5 gusting 13 10.0
2017-Dec-15 20:05 277 6 gusting 13 10.0
2017-Dec-15 20:00 360 4 gusting 13 10.0
2017-Dec-15 19:55 274 5 gusting 12 10.0
2017-Dec-15 19:50 277 8 10.0
2017-Dec-15 19:45 273 9 10.0
2017-Dec-15 19:40 316 10 10.0
2017-Dec-15 19:35 331 11 9.4
2017-Dec-15 19:30 314 12 9.4
2017-Dec-15 19:25 311 13 10.0
2017-Dec-15 19:10 296 9 gusting 13 9.4
2017-Dec-15 19:05 302 6 gusting 13 9.4
2017-Dec-15 19:00 292 5 gusting 11 9.4
2017-Dec-15 18:55 308 6 gusting 11 9.4
2017-Dec-15 18:50 308 6 gusting 11 9.4
2017-Dec-15 18:45 318 4 gusting 12 9.4
2017-Dec-15 18:40 360 5 gusting 13 9.4
2017-Dec-15 18:35 308 8 gusting 13 8.9
2017-Dec-15 18:30 360 7 gusting 11 8.9
2017-Dec-15 18:25 276 1 gusting 8 8.9
2017-Dec-15 18:20 248 3 gusting 10 8.9
2017-Dec-15 18:15 243 4 gusting 10 8.9
2017-Dec-15 18:11 233 4 gusting 13 8.9
2017-Dec-15 18:05 276 4 gusting 14 8.9
2017-Dec-15 18:00 306 9 gusting 14 8.9
2017-Dec-15 17:55 336 8 gusting 13 8.3
2017-Dec-15 17:50 319 4 gusting 16 8.3
2017-Dec-15 17:45 333 7 gusting 19 8.3
2017-Dec-15 17:40 356 10 gusting 19 9.4
2017-Dec-15 17:35 330 6 gusting 17 9.4
2017-Dec-15 17:30 324 2 gusting 12 9.4
2017-Dec-15 17:25 232 1 gusting 19 9.4
2017-Dec-15 17:20 246 7 gusting 19 8.9
2017-Dec-15 17:15 278 8 gusting 13 8.9
2017-Dec-15 17:10 279 6 gusting 13 8.9
2017-Dec-15 17:05 232 6 8.9
2017-Dec-15 17:00 207 6 9.4
2017-Dec-15 16:50 250 6 gusting 13 9.4
2017-Dec-15 16:45 271 4 gusting 13 9.4
2017-Dec-15 16:40 258 6 gusting 13 9.4
2017-Dec-15 16:35 263 4 gusting 17 9.4
2017-Dec-15 16:30 241 6 gusting 20 9.4
2017-Dec-15 16:25 300 8 gusting 20 9.4
2017-Dec-15 16:20 229 10 gusting 19 9.4
2017-Dec-15 16:15 241 7 gusting 15 10.0
2017-Dec-15 16:10 228 10 gusting 15 9.4
2017-Dec-15 16:05 226 6 gusting 13 9.4
2017-Dec-15 16:00 214 6 gusting 13 9.4
2017-Dec-15 15:55 269 3 gusting 13 8.9
2017-Dec-15 15:50 276 5 gusting 14 8.9
2017-Dec-15 15:45 304 6 gusting 14 8.9
2017-Dec-15 15:40 304 6 gusting 13 8.9
2017-Dec-15 15:35 266 3 gusting 21 8.9
2017-Dec-15 15:30 307 12 gusting 21 8.9
2017-Dec-15 15:25 205 7 gusting 19 9.4
2017-Dec-15 15:20 287 1 gusting 11 9.4
2017-Dec-15 15:15 243 3 gusting 16 9.4
2017-Dec-15 15:10 261 6 gusting 19 9.4
2017-Dec-15 15:05 094 7 gusting 19 9.4
2017-Dec-15 15:00 276 7 gusting 13 9.4
2017-Dec-15 14:55 304 3 gusting 13 9.4
2017-Dec-15 14:50 319 5 gusting 17 8.9
2017-Dec-15 14:45 290 6 gusting 17 8.9
2017-Dec-15 14:40 266 2 gusting 26 8.9
2017-Dec-15 14:35 294 13 gusting 26 9.4
2017-Dec-15 14:30 260 9 gusting 18 10.0
2017-Dec-15 14:25 235 7 gusting 15 10.0
2017-Dec-15 14:20 360 6 gusting 14 10.0
2017-Dec-15 14:15 233 7 gusting 13 10.0
2017-Dec-15 14:10 281 6 gusting 13 10.0
2017-Dec-15 14:05 269 6 gusting 11 10.0
2017-Dec-15 14:00 228 2 gusting 11 10.0
2017-Dec-15 13:55 303 6 gusting 12 10.0
2017-Dec-15 13:50 250 4 gusting 15 10.0
2017-Dec-15 13:45 251 5 gusting 17 10.0
2017-Dec-15 13:40 228 6 gusting 19 10.6
2017-Dec-15 13:35 360 5 gusting 19 10.6
2017-Dec-15 13:30 269 8 gusting 30 10.6
2017-Dec-15 13:25 252 9 gusting 30 10.6
2017-Dec-15 13:20 273 6 gusting 20 10.6
2017-Dec-15 13:15 233 9 gusting 20 10.6
2017-Dec-15 13:10 323 7 gusting 17 10.6
2017-Dec-15 13:05 237 8 gusting 17 11.1
2017-Dec-15 13:00 251 6 gusting 13 10.6
2017-Dec-15 12:55 268 6 gusting 14 10.0
2017-Dec-15 12:50 319 6 gusting 15 10.0
2017-Dec-15 12:45 360 6 gusting 19 9.4
2017-Dec-15 12:40 224 4 gusting 19 9.4
2017-Dec-15 12:35 289 6 gusting 19 9.4
2017-Dec-15 12:30 332 5 gusting 20 10.0
2017-Dec-15 12:25 257 8 gusting 20 10.6
2017-Dec-15 12:20 330 9 gusting 19 11.1
2017-Dec-15 12:15 276 3 gusting 23 11.7
2017-Dec-15 12:10 255 4 gusting 23 11.7
2017-Dec-15 12:05 278 6 gusting 14 11.7
2017-Dec-15 12:00 266 2 gusting 19 11.1
2017-Dec-15 11:55 266 5 gusting 19 10.6
2017-Dec-15 11:50 360 10 gusting 13 10.6
2017-Dec-15 11:45 226 6 gusting 13 10.6
2017-Dec-15 11:40 250 4 gusting 13 10.0
2017-Dec-15 11:35 252 6 gusting 14 10.0
2017-Dec-15 11:30 232 6 gusting 18 10.0
2017-Dec-15 11:25 285 9 gusting 18 10.0
2017-Dec-15 11:20 317 4 gusting 13 10.0
2017-Dec-15 11:15 297 6 gusting 19 10.0
2017-Dec-15 11:10 267 5 gusting 19 10.0
2017-Dec-15 11:05 301 6 gusting 19 10.0
2017-Dec-15 11:00 250 4 gusting 19 10.0
2017-Dec-15 10:55 300 6 gusting 17 10.6
2017-Dec-15 10:50 166 4 gusting 17 10.6
2017-Dec-15 10:45 312 6 gusting 16 10.0
2017-Dec-15 10:40 291 6 gusting 16 10.0
2017-Dec-15 10:35 287 3 gusting 19 9.4
2017-Dec-15 10:30 271 6 gusting 19 9.4
2017-Dec-15 10:25 317 3 gusting 21 9.4
2017-Dec-15 10:20 254 5 gusting 21 9.4
2017-Dec-15 10:15 248 6 gusting 17 9.4
2017-Dec-15 10:11 255 7 gusting 13 9.4
2017-Dec-15 10:05 227 5 gusting 13 9.4
2017-Dec-15 10:00 253 6 gusting 10 8.9
2017-Dec-15 09:55 232 3 gusting 11 8.9
2017-Dec-15 09:50 236 3 gusting 11 8.3
2017-Dec-15 09:45 222 3 gusting 12 8.3
2017-Dec-15 09:40 241 6 gusting 13 8.3
2017-Dec-15 09:35 259 4 gusting 13 8.3
2017-Dec-15 09:30 253 8 gusting 15 8.3
2017-Dec-15 09:25 236 8 gusting 15 8.3
2017-Dec-15 09:20 295 6 gusting 13 8.3
2017-Dec-15 09:15 264 5 gusting 14 8.3
2017-Dec-15 09:11 250 5 gusting 15 7.8
2017-Dec-15 09:05 293 8 gusting 19 7.8
2017-Dec-15 09:00 262 3 gusting 19 7.8
2017-Dec-15 08:55 257 7 gusting 13 7.8
2017-Dec-15 08:50 236 6 gusting 14 7.8
2017-Dec-15 08:45 252 6 gusting 14 7.8
2017-Dec-15 08:40 195 4 gusting 13 7.8
2017-Dec-15 08:35 225 7 gusting 13 7.8
2017-Dec-15 08:30 231 4 gusting 10 7.8
2017-Dec-15 08:25 252 5 gusting 11 7.8
2017-Dec-15 08:20 267 4 gusting 13 7.8
2017-Dec-15 08:15 241 7 gusting 13 7.8
2017-Dec-15 08:11 222 4 gusting 12 7.8
2017-Dec-15 08:05 283 6 gusting 13 7.8
2017-Dec-15 08:00 252 5 gusting 13 7.8
2017-Dec-15 07:55 221 5 gusting 13 7.8
2017-Dec-15 07:50 257 4 gusting 13 7.8
2017-Dec-15 07:45 232 6 gusting 13 7.8
2017-Dec-15 07:40 257 5 gusting 13 7.8
2017-Dec-15 07:35 229 4 gusting 13 7.8
2017-Dec-15 07:30 283 6 gusting 15 7.2
2017-Dec-15 07:25 232 5 gusting 16 7.8
2017-Dec-15 07:20 320 5 gusting 16 7.8
2017-Dec-15 07:15 230 2 gusting 14 7.8
2017-Dec-15 07:10 252 0 gusting 14 7.8
2017-Dec-15 07:05 265 5 gusting 11 7.8
2017-Dec-15 07:00 219 6 gusting 12 7.8
2017-Dec-15 06:55 226 6 gusting 12 7.8
2017-Dec-15 06:50 221 7 7.8
2017-Dec-15 06:45 244 7 7.8
2017-Dec-15 06:40 247 7 7.8
2017-Dec-15 06:35 248 7 7.8
2017-Dec-15 06:30 248 7 7.8
2017-Dec-15 06:25 240 6 7.8
2017-Dec-15 06:20 238 6 8.3
2017-Dec-15 06:15 236 6 8.3
2017-Dec-15 06:10 232 6 8.3
2017-Dec-15 06:05 253 6 8.3
2017-Dec-15 06:00 253 7 8.3
2017-Dec-15 05:55 204 7 8.3
2017-Dec-15 05:50 239 8 8.3
2017-Dec-15 05:45 242 7 8.3
2017-Dec-15 05:40 247 6 8.3
2017-Dec-15 05:35 237 7 8.3
2017-Dec-15 05:30 253 7 8.3
2017-Dec-15 05:25 229 6 8.3
2017-Dec-15 05:15 233 5 8.3
2017-Dec-15 05:10 248 5 8.3
2017-Dec-15 05:05 279 6 8.3
2017-Dec-15 05:00 240 5 8.3
2017-Dec-15 04:55 232 4 8.3
2017-Dec-15 04:50 293 5 8.3
2017-Dec-15 04:45 269 5 8.3
2017-Dec-15 04:40 310 6 8.3
2017-Dec-15 04:35 360 6 8.3
2017-Dec-15 04:30 296 6 8.3
2017-Dec-15 04:20 307 6 gusting 17 8.3
2017-Dec-15 04:15 293 7 gusting 17 8.3
2017-Dec-15 04:10 311 5 gusting 17 8.3
2017-Dec-15 04:05 302 9 gusting 17 8.9
2017-Dec-15 04:00 314 7 gusting 19 8.9
2017-Dec-15 03:55 301 12 gusting 25 8.9
2017-Dec-15 03:50 299 15 gusting 25 8.9
2017-Dec-15 03:45 300 13 gusting 24 8.9
2017-Dec-15 03:40 299 17 gusting 24 8.9
2017-Dec-15 03:35 309 17 gusting 28 9.4
2017-Dec-15 03:30 360 13 gusting 28 9.4
2017-Dec-15 03:25 338 16 gusting 28 10.0
2017-Dec-15 03:20 334 18 gusting 31 11.1
2017-Dec-15 03:15 310 18 gusting 31 11.7
2017-Dec-15 03:10 305 13 gusting 30 12.2
2017-Dec-15 03:05 313 21 gusting 30 12.8
2017-Dec-15 03:00 274 12 gusting 25 12.8
2017-Dec-15 02:55 240 6 gusting 22 12.8
2017-Dec-15 02:50 229 12 gusting 19 12.8
2017-Dec-15 02:45 248 8 gusting 22 12.8
2017-Dec-15 02:40 281 13 gusting 22 12.8
2017-Dec-15 02:35 360 6 gusting 20 12.8
2017-Dec-15 02:30 278 10 gusting 23 12.8
2017-Dec-15 02:25 262 9 gusting 23 12.8
2017-Dec-15 02:20 276 11 gusting 18 12.8
2017-Dec-15 02:05 288 6 gusting 20 12.8
2017-Dec-15 02:00 360 11 gusting 19 12.8
2017-Dec-15 01:55 247 6 gusting 20 12.2
2017-Dec-15 01:50 360 8 gusting 20 12.2
2017-Dec-15 01:45 279 6 gusting 20 12.2
2017-Dec-15 01:40 298 6 gusting 22 12.2
2017-Dec-15 01:35 270 6 gusting 22 12.2
2017-Dec-15 01:30 259 8 gusting 21 12.2
2017-Dec-15 01:25 224 8 gusting 21 12.2
2017-Dec-15 01:20 249 8 gusting 19 12.2
2017-Dec-15 01:15 206 6 gusting 23 12.2
2017-Dec-15 01:11 271 7 gusting 23 12.8
2017-Dec-15 01:05 260 5 gusting 23 12.8
2017-Dec-15 01:00 261 10 gusting 23 12.8
2017-Dec-15 00:55 263 6 gusting 19 13.3
2017-Dec-15 00:50 274 9 gusting 22 12.8
2017-Dec-15 00:45 300 12 gusting 22 12.8
2017-Dec-15 00:40 302 9 gusting 24 12.8
2017-Dec-15 00:35 266 7 gusting 24 12.8
2017-Dec-15 00:30 289 10 gusting 22 12.8
2017-Dec-15 00:25 238 8 gusting 22 12.8
2017-Dec-15 00:20 302 6 gusting 22 12.8
2017-Dec-14 18:05 293 9 gusting 21 13.3
2017-Dec-14 18:00 298 12 gusting 20 13.3
2017-Dec-14 17:55 032 9 gusting 20 13.3
2017-Dec-14 17:50 255 9 gusting 19 13.3
2017-Dec-14 17:45 281 6 gusting 18 13.3
2017-Dec-14 17:40 261 11 gusting 21 13.3
2017-Dec-14 17:35 302 7 gusting 21 13.3
2017-Dec-14 17:30 248 7 gusting 17 13.3
2017-Dec-14 17:25 245 6 gusting 15 13.3
2017-Dec-14 17:20 267 8 gusting 14 13.3
2017-Dec-14 17:15 298 7 gusting 14 13.3
2017-Dec-14 17:10 269 4 gusting 17 12.8
2017-Dec-14 17:05 293 4 gusting 17 12.8
2017-Dec-14 17:00 286 3 gusting 15 12.8
2017-Dec-14 16:55 247 6 gusting 17 12.8
2017-Dec-14 16:50 299 9 gusting 17 12.8
2017-Dec-14 16:45 264 6 gusting 18 12.8
2017-Dec-14 16:40 360 6 gusting 20 12.8
2017-Dec-14 16:35 330 7 gusting 21 12.8
2017-Dec-14 16:30 299 6 gusting 21 12.8
2017-Dec-14 16:25 296 8 gusting 19 13.3
2017-Dec-14 16:20 297 10 gusting 19 13.3
2017-Dec-14 16:15 297 7 gusting 20 13.3
2017-Dec-14 16:10 283 10 gusting 20 13.3
2017-Dec-14 16:05 281 8 gusting 14 13.3
2017-Dec-14 16:00 304 5 gusting 14 13.3
2017-Dec-14 15:55 223 5 gusting 11 13.3
2017-Dec-14 15:50 256 5 gusting 13 13.3
2017-Dec-14 15:45 302 6 gusting 16 13.3
2017-Dec-14 15:40 290 9 gusting 19 13.3
2017-Dec-14 15:35 217 7 gusting 19 13.3
2017-Dec-14 15:30 300 4 gusting 18 13.3
2017-Dec-14 15:25 306 3 gusting 18 13.3
2017-Dec-14 15:20 266 6 gusting 16 13.3
2017-Dec-14 15:15 212 6 gusting 14 13.3
2017-Dec-14 15:10 243 6 gusting 16 13.3
2017-Dec-14 15:05 242 8 gusting 16 13.3
2017-Dec-14 15:00 248 6 gusting 15 13.3
2017-Dec-14 14:55 288 4 gusting 15 12.8
2017-Dec-14 14:50 288 6 gusting 17 12.8
2017-Dec-14 14:45 241 8 gusting 17 12.8
2017-Dec-14 14:40 293 5 gusting 14 12.8
2017-Dec-14 14:35 275 6 gusting 15 13.3
2017-Dec-14 14:30 283 6 gusting 17 13.3
2017-Dec-14 14:25 252 9 gusting 22 13.3
2017-Dec-14 14:20 311 9 gusting 22 13.3
2017-Dec-14 14:15 299 7 gusting 19 13.3
2017-Dec-14 14:10 286 13 gusting 19 13.9
2017-Dec-14 14:05 276 3 gusting 14 13.9
2017-Dec-14 14:00 224 2 gusting 10 13.9
2017-Dec-14 13:55 236 2 gusting 13 13.9
2017-Dec-14 13:50 207 6 gusting 13 13.9
2017-Dec-14 13:45 229 2 gusting 11 13.9
2017-Dec-14 13:40 360 5 gusting 11 13.9
2017-Dec-14 13:35 282 4 gusting 8 13.9
2017-Dec-14 13:30 242 4 gusting 11 13.9
2017-Dec-14 13:25 228 3 gusting 11 13.9
2017-Dec-14 13:20 259 2 gusting 12 13.9
2017-Dec-14 13:15 252 6 gusting 12 13.9
2017-Dec-14 13:10 249 6 gusting 12 13.9
2017-Dec-14 13:05 242 2 gusting 12 13.9
2017-Dec-14 13:00 316 4 gusting 11 13.3
2017-Dec-14 12:55 360 4 gusting 11 13.9
2017-Dec-14 12:50 255 5 gusting 10 13.9
2017-Dec-14 12:45 226 1 gusting 13 13.9
2017-Dec-14 12:40 214 6 gusting 13 13.9
2017-Dec-14 12:35 222 3 gusting 11 13.9
2017-Dec-14 12:30 258 13.9
2017-Dec-14 12:25 234 3 gusting 10 13.9
2017-Dec-14 12:20 262 4 gusting 10 13.9
2017-Dec-14 12:15 231 3 gusting 8 13.9
2017-Dec-14 12:10 214 4 gusting 12 13.9
2017-Dec-14 12:05 238 4 gusting 12 13.9
2017-Dec-14 12:00 219 3 13.9
2017-Dec-14 11:55 234 3 13.9
2017-Dec-14 11:50 269 4 13.9
2017-Dec-14 11:45 252 4 13.9
2017-Dec-14 11:40 236 3 13.9
2017-Dec-14 11:35 235 3 13.9
2017-Dec-14 11:25 249 3 gusting 11 14.4
2017-Dec-14 11:20 298 2 gusting 8 14.4
2017-Dec-14 11:15 263 3 gusting 11 13.9
2017-Dec-14 11:10 240 7 gusting 16 13.9
2017-Dec-14 11:05 292 4 gusting 16 13.9
2017-Dec-14 11:00 264 6 gusting 13 13.9